sensor_id;sensor_type;location;lat;lon;timestamp;P1;durP1;ratioP1;P2;durP2;ratioP2
24521;SDS011;12680;57.804;12.190;2023-04-24T00:01:06;19.80;;;11.93;;
24521;SDS011;12680;57.804;12.190;2023-04-24T00:03:34;21.45;;;12.98;;
24521;SDS011;12680;57.804;12.190;2023-04-24T00:06:01;22.15;;;12.15;;
24521;SDS011;12680;57.804;12.190;2023-04-24T00:08:28;22.40;;;11.88;;
24521;SDS011;12680;57.804;12.190;2023-04-24T00:10:56;18.45;;;11.50;;
24521;SDS011;12680;57.804;12.190;2023-04-24T00:13:23;19.65;;;12.63;;
24521;SDS011;12680;57.804;12.190;2023-04-24T00:15:50;21.27;;;12.82;;
24521;SDS011;12680;57.804;12.190;2023-04-24T00:18:17;19.50;;;12.43;;
24521;SDS011;12680;57.804;12.190;2023-04-24T00:20:44;19.83;;;12.57;;
24521;SDS011;12680;57.804;12.190;2023-04-24T00:23:11;24.17;;;13.10;;
24521;SDS011;12680;57.804;12.190;2023-04-24T00:25:38;21.75;;;12.13;;
24521;SDS011;12680;57.804;12.190;2023-04-24T00:28:06;21.48;;;12.63;;
24521;SDS011;12680;57.804;12.190;2023-04-24T00:30:32;23.67;;;12.65;;
24521;SDS011;12680;57.804;12.190;2023-04-24T00:32:59;21.70;;;12.50;;
24521;SDS011;12680;57.804;12.190;2023-04-24T00:35:26;22.05;;;13.15;;
24521;SDS011;12680;57.804;12.190;2023-04-24T00:37:53;19.63;;;12.68;;
24521;SDS011;12680;57.804;12.190;2023-04-24T00:40:19;19.92;;;12.35;;
24521;SDS011;12680;57.804;12.190;2023-04-24T00:42:46;21.40;;;12.25;;
24521;SDS011;12680;57.804;12.190;2023-04-24T00:45:14;23.75;;;12.60;;
24521;SDS011;12680;57.804;12.190;2023-04-24T00:47:41;16.85;;;11.35;;
24521;SDS011;12680;57.804;12.190;2023-04-24T00:50:08;22.02;;;12.43;;
24521;SDS011;12680;57.804;12.190;2023-04-24T00:52:35;20.80;;;12.10;;
24521;SDS011;12680;57.804;12.190;2023-04-24T00:55:03;22.17;;;12.07;;
24521;SDS011;12680;57.804;12.190;2023-04-24T00:57:30;21.35;;;11.90;;
24521;SDS011;12680;57.804;12.190;2023-04-24T00:59:57;22.35;;;12.85;;
24521;SDS011;12680;57.804;12.190;2023-04-24T01:02:24;21.20;;;12.77;;
24521;SDS011;12680;57.804;12.190;2023-04-24T01:04:51;21.83;;;11.88;;
24521;SDS011;12680;57.804;12.190;2023-04-24T01:07:21;18.40;;;11.85;;
24521;SDS011;12680;57.804;12.190;2023-04-24T01:09:48;22.77;;;12.45;;
24521;SDS011;12680;57.804;12.190;2023-04-24T01:12:17;17.90;;;11.40;;
24521;SDS011;12680;57.804;12.190;2023-04-24T01:14:45;19.33;;;12.43;;
24521;SDS011;12680;57.804;12.190;2023-04-24T01:17:12;20.67;;;12.30;;
24521;SDS011;12680;57.804;12.190;2023-04-24T01:19:38;18.75;;;12.15;;
24521;SDS011;12680;57.804;12.190;2023-04-24T01:22:08;20.35;;;11.10;;
24521;SDS011;12680;57.804;12.190;2023-04-24T01:24:40;22.27;;;13.05;;
24521;SDS011;12680;57.804;12.190;2023-04-24T01:27:08;18.40;;;11.32;;
24521;SDS011;12680;57.804;12.190;2023-04-24T01:29:36;20.55;;;11.23;;
24521;SDS011;12680;57.804;12.190;2023-04-24T01:32:03;19.73;;;11.88;;
24521;SDS011;12680;57.804;12.190;2023-04-24T01:34:31;26.42;;;13.30;;
24521;SDS011;12680;57.804;12.190;2023-04-24T01:36:58;25.88;;;13.88;;
24521;SDS011;12680;57.804;12.190;2023-04-24T01:39:26;23.00;;;14.10;;
24521;SDS011;12680;57.804;12.190;2023-04-24T01:41:54;21.08;;;12.52;;
24521;SDS011;12680;57.804;12.190;2023-04-24T01:44:21;22.55;;;13.60;;
24521;SDS011;12680;57.804;12.190;2023-04-24T01:46:49;24.02;;;13.68;;
24521;SDS011;12680;57.804;12.190;2023-04-24T01:49:16;25.10;;;13.85;;
24521;SDS011;12680;57.804;12.190;2023-04-24T01:51:43;21.30;;;11.80;;
24521;SDS011;12680;57.804;12.190;2023-04-24T01:54:10;21.88;;;12.80;;
24521;SDS011;12680;57.804;12.190;2023-04-24T01:56:39;24.27;;;14.32;;
24521;SDS011;12680;57.804;12.190;2023-04-24T01:59:11;22.20;;;12.70;;
24521;SDS011;12680;57.804;12.190;2023-04-24T02:01:38;21.13;;;13.30;;
24521;SDS011;12680;57.804;12.190;2023-04-24T02:04:06;21.92;;;12.15;;
24521;SDS011;12680;57.804;12.190;2023-04-24T02:06:34;19.30;;;12.13;;
24521;SDS011;12680;57.804;12.190;2023-04-24T02:09:02;22.27;;;12.50;;
24521;SDS011;12680;57.804;12.190;2023-04-24T02:11:29;24.25;;;14.25;;
24521;SDS011;12680;57.804;12.190;2023-04-24T02:13:56;22.48;;;13.10;;
24521;SDS011;12680;57.804;12.190;2023-04-24T02:16:23;22.52;;;13.07;;
24521;SDS011;12680;57.804;12.190;2023-04-24T02:18:51;21.98;;;12.88;;
24521;SDS011;12680;57.804;12.190;2023-04-24T02:21:17;19.50;;;11.63;;
24521;SDS011;12680;57.804;12.190;2023-04-24T02:23:44;20.33;;;12.30;;
24521;SDS011;12680;57.804;12.190;2023-04-24T02:26:11;23.83;;;12.80;;
24521;SDS011;12680;57.804;12.190;2023-04-24T02:28:38;23.77;;;14.23;;
24521;SDS011;12680;57.804;12.190;2023-04-24T02:31:05;25.85;;;13.32;;
24521;SDS011;12680;57.804;12.190;2023-04-24T02:33:32;21.92;;;13.60;;
24521;SDS011;12680;57.804;12.190;2023-04-24T02:35:59;21.25;;;12.18;;
24521;SDS011;12680;57.804;12.190;2023-04-24T02:38:26;22.80;;;12.77;;
24521;SDS011;12680;57.804;12.190;2023-04-24T02:40:52;23.58;;;13.50;;
24521;SDS011;12680;57.804;12.190;2023-04-24T02:43:19;22.05;;;12.50;;
24521;SDS011;12680;57.804;12.190;2023-04-24T02:45:46;19.65;;;12.52;;
24521;SDS011;12680;57.804;12.190;2023-04-24T02:48:14;21.48;;;12.98;;
24521;SDS011;12680;57.804;12.190;2023-04-24T02:50:41;23.23;;;12.20;;
24521;SDS011;12680;57.804;12.190;2023-04-24T02:53:07;19.30;;;12.88;;
24521;SDS011;12680;57.804;12.190;2023-04-24T02:55:34;22.98;;;12.85;;
24521;SDS011;12680;57.804;12.190;2023-04-24T02:58:01;20.65;;;13.02;;
24521;SDS011;12680;57.804;12.190;2023-04-24T03:00:28;23.48;;;12.82;;
24521;SDS011;12680;57.804;12.190;2023-04-24T03:02:56;20.63;;;12.70;;
24521;SDS011;12680;57.804;12.190;2023-04-24T03:05:23;21.67;;;11.90;;
24521;SDS011;12680;57.804;12.190;2023-04-24T03:07:50;19.65;;;12.02;;
24521;SDS011;12680;57.804;12.190;2023-04-24T03:10:18;20.40;;;12.18;;
24521;SDS011;12680;57.804;12.190;2023-04-24T03:12:45;20.70;;;11.45;;
24521;SDS011;12680;57.804;12.190;2023-04-24T03:15:12;22.75;;;12.48;;
24521;SDS011;12680;57.804;12.190;2023-04-24T03:17:39;23.98;;;12.98;;
24521;SDS011;12680;57.804;12.190;2023-04-24T03:20:06;22.92;;;11.43;;
24521;SDS011;12680;57.804;12.190;2023-04-24T03:22:34;21.52;;;12.45;;
24521;SDS011;12680;57.804;12.190;2023-04-24T03:25:01;20.40;;;12.30;;
24521;SDS011;12680;57.804;12.190;2023-04-24T03:27:28;22.35;;;13.35;;
24521;SDS011;12680;57.804;12.190;2023-04-24T03:29:55;21.67;;;11.52;;
24521;SDS011;12680;57.804;12.190;2023-04-24T03:32:22;21.38;;;12.90;;
24521;SDS011;12680;57.804;12.190;2023-04-24T03:34:49;19.92;;;12.02;;
24521;SDS011;12680;57.804;12.190;2023-04-24T03:37:16;16.38;;;11.30;;
24521;SDS011;12680;57.804;12.190;2023-04-24T03:39:43;22.48;;;12.13;;
24521;SDS011;12680;57.804;12.190;2023-04-24T03:42:11;21.60;;;12.73;;
24521;SDS011;12680;57.804;12.190;2023-04-24T03:44:37;20.17;;;12.05;;
24521;SDS011;12680;57.804;12.190;2023-04-24T03:47:04;22.55;;;13.45;;
24521;SDS011;12680;57.804;12.190;2023-04-24T03:49:31;21.98;;;12.77;;
24521;SDS011;12680;57.804;12.190;2023-04-24T03:51:58;22.50;;;13.20;;
24521;SDS011;12680;57.804;12.190;2023-04-24T03:54:25;22.38;;;12.63;;
24521;SDS011;12680;57.804;12.190;2023-04-24T03:56:52;24.10;;;12.85;;
24521;SDS011;12680;57.804;12.190;2023-04-24T03:59:19;23.95;;;13.48;;
24521;SDS011;12680;57.804;12.190;2023-04-24T04:01:46;24.38;;;14.48;;
24521;SDS011;12680;57.804;12.190;2023-04-24T04:04:12;25.52;;;13.50;;
24521;SDS011;12680;57.804;12.190;2023-04-24T04:06:40;21.02;;;12.95;;
24521;SDS011;12680;57.804;12.190;2023-04-24T04:09:06;22.58;;;13.18;;
24521;SDS011;12680;57.804;12.190;2023-04-24T04:11:34;24.35;;;13.75;;
24521;SDS011;12680;57.804;12.190;2023-04-24T04:14:01;23.13;;;12.93;;
24521;SDS011;12680;57.804;12.190;2023-04-24T04:16:28;21.70;;;13.02;;
24521;SDS011;12680;57.804;12.190;2023-04-24T04:18:55;27.98;;;14.10;;
24521;SDS011;12680;57.804;12.190;2023-04-24T04:21:22;22.30;;;13.65;;
24521;SDS011;12680;57.804;12.190;2023-04-24T04:23:49;22.75;;;14.10;;
24521;SDS011;12680;57.804;12.190;2023-04-24T04:26:16;23.58;;;12.95;;
24521;SDS011;12680;57.804;12.190;2023-04-24T04:28:42;23.35;;;13.50;;
24521;SDS011;12680;57.804;12.190;2023-04-24T04:31:10;25.05;;;14.65;;
24521;SDS011;12680;57.804;12.190;2023-04-24T04:33:37;26.17;;;13.93;;
24521;SDS011;12680;57.804;12.190;2023-04-24T04:36:05;22.42;;;13.48;;
24521;SDS011;12680;57.804;12.190;2023-04-24T04:38:32;22.30;;;13.32;;
24521;SDS011;12680;57.804;12.190;2023-04-24T04:40:59;26.02;;;13.43;;
24521;SDS011;12680;57.804;12.190;2023-04-24T04:43:26;21.67;;;13.77;;
24521;SDS011;12680;57.804;12.190;2023-04-24T04:45:53;23.80;;;14.85;;
24521;SDS011;12680;57.804;12.190;2023-04-24T04:48:21;22.45;;;13.20;;
24521;SDS011;12680;57.804;12.190;2023-04-24T04:50:48;23.08;;;14.18;;
24521;SDS011;12680;57.804;12.190;2023-04-24T04:53:15;22.20;;;13.27;;
24521;SDS011;12680;57.804;12.190;2023-04-24T04:55:42;26.90;;;14.00;;
24521;SDS011;12680;57.804;12.190;2023-04-24T04:58:08;21.50;;;13.75;;
24521;SDS011;12680;57.804;12.190;2023-04-24T05:00:35;22.92;;;13.57;;
24521;SDS011;12680;57.804;12.190;2023-04-24T05:03:03;22.95;;;13.32;;
24521;SDS011;12680;57.804;12.190;2023-04-24T05:05:45;23.40;;;13.43;;
24521;SDS011;12680;57.804;12.190;2023-04-24T05:08:12;25.73;;;12.98;;
24521;SDS011;12680;57.804;12.190;2023-04-24T05:10:52;24.83;;;14.00;;
24521;SDS011;12680;57.804;12.190;2023-04-24T05:13:18;22.92;;;14.23;;
24521;SDS011;12680;57.804;12.190;2023-04-24T05:15:57;22.30;;;12.90;;
24521;SDS011;12680;57.804;12.190;2023-04-24T05:18:24;22.23;;;13.38;;
24521;SDS011;12680;57.804;12.190;2023-04-24T05:20:51;24.92;;;13.93;;
24521;SDS011;12680;57.804;12.190;2023-04-24T05:23:17;23.50;;;13.20;;
24521;SDS011;12680;57.804;12.190;2023-04-24T05:25:45;29.08;;;14.10;;
24521;SDS011;12680;57.804;12.190;2023-04-24T05:28:12;19.50;;;12.38;;
24521;SDS011;12680;57.804;12.190;2023-04-24T05:30:39;20.92;;;12.73;;
24521;SDS011;12680;57.804;12.190;2023-04-24T05:33:06;21.25;;;12.38;;
24521;SDS011;12680;57.804;12.190;2023-04-24T05:35:33;20.75;;;13.07;;
24521;SDS011;12680;57.804;12.190;2023-04-24T05:38:00;23.48;;;13.73;;
24521;SDS011;12680;57.804;12.190;2023-04-24T05:40:26;22.77;;;13.25;;
24521;SDS011;12680;57.804;12.190;2023-04-24T05:42:53;25.45;;;13.73;;
24521;SDS011;12680;57.804;12.190;2023-04-24T05:45:20;20.67;;;12.88;;
24521;SDS011;12680;57.804;12.190;2023-04-24T05:47:46;19.50;;;12.43;;
24521;SDS011;12680;57.804;12.190;2023-04-24T05:50:13;19.95;;;12.68;;
24521;SDS011;12680;57.804;12.190;2023-04-24T05:52:41;21.40;;;12.93;;
24521;SDS011;12680;57.804;12.190;2023-04-24T05:55:07;23.05;;;12.80;;
24521;SDS011;12680;57.804;12.190;2023-04-24T05:57:34;20.38;;;13.38;;
24521;SDS011;12680;57.804;12.190;2023-04-24T06:00:01;20.13;;;12.60;;
24521;SDS011;12680;57.804;12.190;2023-04-24T06:02:30;25.48;;;13.13;;
24521;SDS011;12680;57.804;12.190;2023-04-24T06:04:59;22.27;;;12.85;;
24521;SDS011;12680;57.804;12.190;2023-04-24T06:07:26;26.13;;;13.43;;
24521;SDS011;12680;57.804;12.190;2023-04-24T06:09:53;20.58;;;12.43;;
24521;SDS011;12680;57.804;12.190;2023-04-24T06:12:20;23.73;;;12.50;;
24521;SDS011;12680;57.804;12.190;2023-04-24T06:14:47;20.85;;;12.18;;
24521;SDS011;12680;57.804;12.190;2023-04-24T06:17:13;19.83;;;12.75;;
24521;SDS011;12680;57.804;12.190;2023-04-24T06:19:40;22.98;;;12.75;;
24521;SDS011;12680;57.804;12.190;2023-04-24T06:22:08;19.33;;;12.30;;
24521;SDS011;12680;57.804;12.190;2023-04-24T06:24:36;19.45;;;11.98;;
24521;SDS011;12680;57.804;12.190;2023-04-24T06:27:03;17.10;;;11.50;;
24521;SDS011;12680;57.804;12.190;2023-04-24T06:29:30;16.13;;;10.45;;
24521;SDS011;12680;57.804;12.190;2023-04-24T06:31:56;18.10;;;12.15;;
24521;SDS011;12680;57.804;12.190;2023-04-24T06:34:23;16.85;;;11.40;;
24521;SDS011;12680;57.804;12.190;2023-04-24T06:36:50;19.48;;;11.88;;
24521;SDS011;12680;57.804;12.190;2023-04-24T06:39:17;17.85;;;10.85;;
24521;SDS011;12680;57.804;12.190;2023-04-24T06:41:44;16.70;;;11.13;;
24521;SDS011;12680;57.804;12.190;2023-04-24T06:44:11;20.20;;;11.23;;
24521;SDS011;12680;57.804;12.190;2023-04-24T06:46:38;16.67;;;10.88;;
24521;SDS011;12680;57.804;12.190;2023-04-24T06:49:07;19.58;;;11.50;;
24521;SDS011;12680;57.804;12.190;2023-04-24T06:51:33;17.50;;;11.23;;
24521;SDS011;12680;57.804;12.190;2023-04-24T06:54:00;17.83;;;10.65;;
24521;SDS011;12680;57.804;12.190;2023-04-24T06:56:27;15.75;;;10.50;;
24521;SDS011;12680;57.804;12.190;2023-04-24T06:58:55;17.10;;;10.60;;
24521;SDS011;12680;57.804;12.190;2023-04-24T07:01:22;18.60;;;10.32;;
24521;SDS011;12680;57.804;12.190;2023-04-24T07:03:49;16.05;;;10.35;;
24521;SDS011;12680;57.804;12.190;2023-04-24T07:06:16;15.43;;;10.43;;
24521;SDS011;12680;57.804;12.190;2023-04-24T07:08:44;13.77;;;9.85;;
24521;SDS011;12680;57.804;12.190;2023-04-24T07:11:12;14.77;;;10.10;;
24521;SDS011;12680;57.804;12.190;2023-04-24T07:13:39;14.50;;;9.93;;
24521;SDS011;12680;57.804;12.190;2023-04-24T07:16:08;14.93;;;9.85;;
24521;SDS011;12680;57.804;12.190;2023-04-24T07:18:36;15.68;;;9.82;;
24521;SDS011;12680;57.804;12.190;2023-04-24T07:21:03;16.20;;;9.55;;
24521;SDS011;12680;57.804;12.190;2023-04-24T07:23:30;12.25;;;9.10;;
24521;SDS011;12680;57.804;12.190;2023-04-24T07:25:57;13.95;;;9.05;;
24521;SDS011;12680;57.804;12.190;2023-04-24T07:28:24;15.77;;;9.95;;
24521;SDS011;12680;57.804;12.190;2023-04-24T07:30:51;16.27;;;9.60;;
24521;SDS011;12680;57.804;12.190;2023-04-24T07:33:20;13.25;;;8.82;;
24521;SDS011;12680;57.804;12.190;2023-04-24T07:35:47;16.65;;;9.00;;
24521;SDS011;12680;57.804;12.190;2023-04-24T07:38:14;13.68;;;8.65;;
24521;SDS011;12680;57.804;12.190;2023-04-24T07:40:41;14.93;;;8.60;;
24521;SDS011;12680;57.804;12.190;2023-04-24T07:43:08;16.17;;;10.25;;
24521;SDS011;12680;57.804;12.190;2023-04-24T07:45:34;14.95;;;9.55;;
24521;SDS011;12680;57.804;12.190;2023-04-24T07:48:03;13.98;;;8.65;;
24521;SDS011;12680;57.804;12.190;2023-04-24T07:50:31;14.65;;;8.80;;
24521;SDS011;12680;57.804;12.190;2023-04-24T07:52:58;14.02;;;8.73;;
24521;SDS011;12680;57.804;12.190;2023-04-24T07:55:24;13.85;;;8.60;;
24521;SDS011;12680;57.804;12.190;2023-04-24T07:57:53;13.75;;;9.15;;
24521;SDS011;12680;57.804;12.190;2023-04-24T08:00:20;13.48;;;8.90;;
24521;SDS011;12680;57.804;12.190;2023-04-24T08:02:47;15.30;;;9.23;;
24521;SDS011;12680;57.804;12.190;2023-04-24T08:05:14;14.45;;;8.63;;
24521;SDS011;12680;57.804;12.190;2023-04-24T08:07:41;14.15;;;9.18;;
24521;SDS011;12680;57.804;12.190;2023-04-24T08:10:12;13.55;;;8.98;;
24521;SDS011;12680;57.804;12.190;2023-04-24T08:12:39;13.38;;;8.50;;
24521;SDS011;12680;57.804;12.190;2023-04-24T08:15:06;16.45;;;9.00;;
24521;SDS011;12680;57.804;12.190;2023-04-24T08:17:34;14.52;;;8.45;;
24521;SDS011;12680;57.804;12.190;2023-04-24T08:20:04;13.80;;;8.70;;
24521;SDS011;12680;57.804;12.190;2023-04-24T08:22:32;13.40;;;8.47;;
24521;SDS011;12680;57.804;12.190;2023-04-24T08:24:59;12.57;;;7.93;;
24521;SDS011;12680;57.804;12.190;2023-04-24T08:27:26;14.15;;;8.43;;
24521;SDS011;12680;57.804;12.190;2023-04-24T08:29:53;10.85;;;7.78;;
24521;SDS011;12680;57.804;12.190;2023-04-24T08:32:20;12.40;;;8.00;;
24521;SDS011;12680;57.804;12.190;2023-04-24T08:34:47;14.80;;;8.25;;
24521;SDS011;12680;57.804;12.190;2023-04-24T08:37:15;12.82;;;8.13;;
24521;SDS011;12680;57.804;12.190;2023-04-24T08:39:41;13.10;;;8.43;;
24521;SDS011;12680;57.804;12.190;2023-04-24T08:42:09;16.50;;;9.07;;
24521;SDS011;12680;57.804;12.190;2023-04-24T08:44:39;16.02;;;9.25;;
24521;SDS011;12680;57.804;12.190;2023-04-24T08:47:05;12.55;;;8.38;;
24521;SDS011;12680;57.804;12.190;2023-04-24T08:49:35;13.75;;;9.00;;
24521;SDS011;12680;57.804;12.190;2023-04-24T08:52:02;13.68;;;8.23;;
24521;SDS011;12680;57.804;12.190;2023-04-24T08:54:31;11.90;;;8.27;;
24521;SDS011;12680;57.804;12.190;2023-04-24T08:57:00;14.02;;;7.93;;
24521;SDS011;12680;57.804;12.190;2023-04-24T08:59:27;13.48;;;8.57;;
24521;SDS011;12680;57.804;12.190;2023-04-24T09:01:55;12.10;;;8.27;;
24521;SDS011;12680;57.804;12.190;2023-04-24T09:04:23;12.10;;;8.23;;
24521;SDS011;12680;57.804;12.190;2023-04-24T09:06:52;16.50;;;9.20;;
24521;SDS011;12680;57.804;12.190;2023-04-24T09:09:22;13.55;;;8.13;;
24521;SDS011;12680;57.804;12.190;2023-04-24T09:11:50;16.15;;;8.73;;
24521;SDS011;12680;57.804;12.190;2023-04-24T09:14:20;12.73;;;7.85;;
24521;SDS011;12680;57.804;12.190;2023-04-24T09:16:47;17.70;;;9.05;;
24521;SDS011;12680;57.804;12.190;2023-04-24T09:19:14;13.25;;;8.52;;
24521;SDS011;12680;57.804;12.190;2023-04-24T09:21:41;14.95;;;9.15;;
24521;SDS011;12680;57.804;12.190;2023-04-24T09:24:19;12.55;;;8.18;;
24521;SDS011;12680;57.804;12.190;2023-04-24T09:26:49;15.75;;;8.70;;
24521;SDS011;12680;57.804;12.190;2023-04-24T09:29:25;13.90;;;8.20;;
24521;SDS011;12680;57.804;12.190;2023-04-24T09:31:52;14.50;;;9.40;;
24521;SDS011;12680;57.804;12.190;2023-04-24T09:34:22;15.95;;;9.75;;
24521;SDS011;12680;57.804;12.190;2023-04-24T09:36:50;14.90;;;8.80;;
24521;SDS011;12680;57.804;12.190;2023-04-24T09:39:18;13.77;;;8.82;;
24521;SDS011;12680;57.804;12.190;2023-04-24T09:41:51;14.35;;;8.68;;
24521;SDS011;12680;57.804;12.190;2023-04-24T09:44:24;12.88;;;7.97;;
24521;SDS011;12680;57.804;12.190;2023-04-24T09:46:59;14.13;;;8.30;;
24521;SDS011;12680;57.804;12.190;2023-04-24T09:49:27;15.05;;;8.43;;
24521;SDS011;12680;57.804;12.190;2023-04-24T09:52:08;13.60;;;8.32;;
24521;SDS011;12680;57.804;12.190;2023-04-24T09:54:36;12.48;;;7.40;;
24521;SDS011;12680;57.804;12.190;2023-04-24T09:57:05;13.35;;;8.07;;
24521;SDS011;12680;57.804;12.190;2023-04-24T09:59:34;13.73;;;8.27;;
24521;SDS011;12680;57.804;12.190;2023-04-24T10:02:02;16.20;;;8.05;;
24521;SDS011;12680;57.804;12.190;2023-04-24T10:04:41;13.80;;;8.75;;
24521;SDS011;12680;57.804;12.190;2023-04-24T10:07:20;15.27;;;9.90;;
24521;SDS011;12680;57.804;12.190;2023-04-24T10:09:47;14.15;;;9.82;;
24521;SDS011;12680;57.804;12.190;2023-04-24T10:12:13;15.60;;;9.77;;
24521;SDS011;12680;57.804;12.190;2023-04-24T10:14:41;18.35;;;9.57;;
24521;SDS011;12680;57.804;12.190;2023-04-24T10:17:10;12.35;;;8.50;;
24521;SDS011;12680;57.804;12.190;2023-04-24T10:19:38;13.48;;;8.63;;
24521;SDS011;12680;57.804;12.190;2023-04-24T10:22:07;13.05;;;8.55;;
24521;SDS011;12680;57.804;12.190;2023-04-24T10:24:34;14.13;;;8.27;;
24521;SDS011;12680;57.804;12.190;2023-04-24T10:27:03;12.43;;;8.65;;
24521;SDS011;12680;57.804;12.190;2023-04-24T10:29:31;12.15;;;7.72;;
24521;SDS011;12680;57.804;12.190;2023-04-24T10:31:58;11.50;;;7.88;;
24521;SDS011;12680;57.804;12.190;2023-04-24T10:34:25;11.45;;;8.07;;
24521;SDS011;12680;57.804;12.190;2023-04-24T10:36:53;10.77;;;7.35;;
24521;SDS011;12680;57.804;12.190;2023-04-24T10:39:23;11.02;;;7.18;;
24521;SDS011;12680;57.804;12.190;2023-04-24T10:41:54;10.20;;;7.68;;
24521;SDS011;12680;57.804;12.190;2023-04-24T10:44:23;8.93;;;6.80;;
24521;SDS011;12680;57.804;12.190;2023-04-24T10:46:54;10.45;;;7.40;;
24521;SDS011;12680;57.804;12.190;2023-04-24T10:52:00;10.77;;;7.28;;
24521;SDS011;12680;57.804;12.190;2023-04-24T10:54:29;10.70;;;7.07;;
24521;SDS011;12680;57.804;12.190;2023-04-24T10:59:47;12.07;;;6.68;;
24521;SDS011;12680;57.804;12.190;2023-04-24T11:02:16;9.40;;;6.63;;
24521;SDS011;12680;57.804;12.190;2023-04-24T11:04:44;9.35;;;6.85;;
24521;SDS011;12680;57.804;12.190;2023-04-24T11:07:12;8.07;;;6.10;;
24521;SDS011;12680;57.804;12.190;2023-04-24T11:09:39;6.95;;;5.82;;
24521;SDS011;12680;57.804;12.190;2023-04-24T11:12:10;9.77;;;6.75;;
24521;SDS011;12680;57.804;12.190;2023-04-24T11:15:20;8.73;;;6.22;;
24521;SDS011;12680;57.804;12.190;2023-04-24T11:17:32;8.15;;;5.82;;
24521;SDS011;12680;57.804;12.190;2023-04-24T11:20:05;8.63;;;6.28;;
24521;SDS011;12680;57.804;12.190;2023-04-24T11:22:50;8.77;;;5.53;;
24521;SDS011;12680;57.804;12.190;2023-04-24T11:25:21;8.30;;;6.25;;
24521;SDS011;12680;57.804;12.190;2023-04-24T11:27:52;8.07;;;5.30;;
24521;SDS011;12680;57.804;12.190;2023-04-24T11:30:30;6.82;;;5.45;;
24521;SDS011;12680;57.804;12.190;2023-04-24T11:33:03;7.70;;;5.80;;
24521;SDS011;12680;57.804;12.190;2023-04-24T11:38:03;6.18;;;5.30;;
24521;SDS011;12680;57.804;12.190;2023-04-24T11:40:34;6.07;;;5.00;;
24521;SDS011;12680;57.804;12.190;2023-04-24T11:43:03;7.03;;;4.90;;
24521;SDS011;12680;57.804;12.190;2023-04-24T11:45:33;6.65;;;4.68;;
24521;SDS011;12680;57.804;12.190;2023-04-24T11:48:00;7.93;;;5.00;;
24521;SDS011;12680;57.804;12.190;2023-04-24T11:50:27;6.28;;;4.60;;
24521;SDS011;12680;57.804;12.190;2023-04-24T11:52:55;7.72;;;4.78;;
24521;SDS011;12680;57.804;12.190;2023-04-24T11:55:22;7.95;;;4.63;;
24521;SDS011;12680;57.804;12.190;2023-04-24T11:57:53;6.03;;;4.35;;
24521;SDS011;12680;57.804;12.190;2023-04-24T12:00:27;5.30;;;4.10;;
24521;SDS011;12680;57.804;12.190;2023-04-24T12:03:05;6.50;;;3.97;;
24521;SDS011;12680;57.804;12.190;2023-04-24T12:05:38;4.80;;;4.10;;
24521;SDS011;12680;57.804;12.190;2023-04-24T12:08:06;4.70;;;3.83;;
24521;SDS011;12680;57.804;12.190;2023-04-24T12:10:33;6.93;;;4.18;;
24521;SDS011;12680;57.804;12.190;2023-04-24T12:13:00;8.43;;;4.47;;
24521;SDS011;12680;57.804;12.190;2023-04-24T12:15:27;5.68;;;4.22;;
24521;SDS011;12680;57.804;12.190;2023-04-24T12:17:55;6.78;;;3.53;;
24521;SDS011;12680;57.804;12.190;2023-04-24T12:20:27;4.93;;;3.97;;
24521;SDS011;12680;57.804;12.190;2023-04-24T12:22:56;4.57;;;3.58;;
24521;SDS011;12680;57.804;12.190;2023-04-24T12:25:24;4.75;;;3.85;;
24521;SDS011;12680;57.804;12.190;2023-04-24T12:30:33;3.92;;;3.53;;
24521;SDS011;12680;57.804;12.190;2023-04-24T12:33:01;5.97;;;3.00;;
24521;SDS011;12680;57.804;12.190;2023-04-24T12:35:30;3.58;;;3.13;;
24521;SDS011;12680;57.804;12.190;2023-04-24T12:38:06;3.47;;;2.60;;
24521;SDS011;12680;57.804;12.190;2023-04-24T12:40:34;4.32;;;3.00;;
24521;SDS011;12680;57.804;12.190;2023-04-24T12:43:13;6.93;;;2.75;;
24521;SDS011;12680;57.804;12.190;2023-04-24T12:45:44;6.05;;;2.95;;
24521;SDS011;12680;57.804;12.190;2023-04-24T12:48:11;3.55;;;2.80;;
24521;SDS011;12680;57.804;12.190;2023-04-24T12:50:40;3.08;;;2.75;;
24521;SDS011;12680;57.804;12.190;2023-04-24T12:53:10;3.47;;;2.97;;
24521;SDS011;12680;57.804;12.190;2023-04-24T12:55:37;2.78;;;2.53;;
24521;SDS011;12680;57.804;12.190;2023-04-24T12:58:04;3.30;;;2.45;;
24521;SDS011;12680;57.804;12.190;2023-04-24T13:00:31;3.00;;;2.40;;
24521;SDS011;12680;57.804;12.190;2023-04-24T13:02:58;3.53;;;3.08;;
24521;SDS011;12680;57.804;12.190;2023-04-24T13:05:26;3.92;;;2.70;;
24521;SDS011;12680;57.804;12.190;2023-04-24T13:07:53;3.13;;;2.83;;
24521;SDS011;12680;57.804;12.190;2023-04-24T13:10:19;3.67;;;2.53;;
24521;SDS011;12680;57.804;12.190;2023-04-24T13:12:46;4.40;;;2.65;;
24521;SDS011;12680;57.804;12.190;2023-04-24T13:15:13;2.47;;;2.28;;
24521;SDS011;12680;57.804;12.190;2023-04-24T13:17:40;3.60;;;2.63;;
24521;SDS011;12680;57.804;12.190;2023-04-24T13:20:07;4.05;;;2.60;;
24521;SDS011;12680;57.804;12.190;2023-04-24T13:22:34;3.25;;;2.53;;
24521;SDS011;12680;57.804;12.190;2023-04-24T13:25:02;2.42;;;2.22;;
24521;SDS011;12680;57.804;12.190;2023-04-24T13:27:32;3.15;;;2.30;;
24521;SDS011;12680;57.804;12.190;2023-04-24T13:29:59;2.97;;;2.42;;
24521;SDS011;12680;57.804;12.190;2023-04-24T13:32:26;2.80;;;2.28;;
24521;SDS011;12680;57.804;12.190;2023-04-24T13:34:53;2.85;;;2.13;;
24521;SDS011;12680;57.804;12.190;2023-04-24T13:37:20;3.03;;;2.38;;
24521;SDS011;12680;57.804;12.190;2023-04-24T13:39:48;2.88;;;2.17;;
24521;SDS011;12680;57.804;12.190;2023-04-24T13:42:15;3.28;;;2.50;;
24521;SDS011;12680;57.804;12.190;2023-04-24T13:44:42;4.53;;;2.25;;
24521;SDS011;12680;57.804;12.190;2023-04-24T13:47:08;2.90;;;2.60;;
24521;SDS011;12680;57.804;12.190;2023-04-24T13:49:35;2.47;;;2.20;;
24521;SDS011;12680;57.804;12.190;2023-04-24T13:52:02;3.03;;;2.38;;
24521;SDS011;12680;57.804;12.190;2023-04-24T13:54:29;2.30;;;1.90;;
24521;SDS011;12680;57.804;12.190;2023-04-24T13:56:57;3.58;;;2.47;;
24521;SDS011;12680;57.804;12.190;2023-04-24T13:59:24;2.58;;;2.38;;
24521;SDS011;12680;57.804;12.190;2023-04-24T14:01:51;2.72;;;2.50;;
24521;SDS011;12680;57.804;12.190;2023-04-24T14:04:18;4.53;;;2.78;;
24521;SDS011;12680;57.804;12.190;2023-04-24T14:06:45;3.40;;;2.42;;
24521;SDS011;12680;57.804;12.190;2023-04-24T14:09:12;3.28;;;2.40;;
24521;SDS011;12680;57.804;12.190;2023-04-24T14:11:39;2.75;;;2.30;;
24521;SDS011;12680;57.804;12.190;2023-04-24T14:14:07;3.38;;;2.80;;
24521;SDS011;12680;57.804;12.190;2023-04-24T14:16:34;2.80;;;2.50;;
24521;SDS011;12680;57.804;12.190;2023-04-24T14:19:02;6.25;;;2.83;;
24521;SDS011;12680;57.804;12.190;2023-04-24T14:21:29;3.28;;;2.47;;
24521;SDS011;12680;57.804;12.190;2023-04-24T14:23:56;3.28;;;2.70;;
24521;SDS011;12680;57.804;12.190;2023-04-24T14:29:05;3.45;;;2.50;;
24521;SDS011;12680;57.804;12.190;2023-04-24T14:31:41;3.65;;;2.90;;
24521;SDS011;12680;57.804;12.190;2023-04-24T14:34:09;3.33;;;2.67;;
24521;SDS011;12680;57.804;12.190;2023-04-24T14:39:12;4.28;;;2.65;;